sensor_id;sensor_type;location;lat;lon;timestamp;P1;durP1;ratioP1;P2;durP2;ratioP2
46613;SDS011;32338;50.430;6.806;2023-06-10T00:02:05;6.82;;;5.97;;
46613;SDS011;32338;50.430;6.806;2023-06-10T00:04:32;8.13;;;6.20;;
46613;SDS011;32338;50.430;6.806;2023-06-10T00:06:59;6.85;;;6.25;;
46613;SDS011;32338;50.430;6.806;2023-06-10T00:09:26;10.35;;;6.07;;
46613;SDS011;32338;50.430;6.806;2023-06-10T00:11:54;6.20;;;5.68;;
46613;SDS011;32338;50.430;6.806;2023-06-10T00:14:24;7.50;;;5.70;;
46613;SDS011;32338;50.430;6.806;2023-06-10T00:16:51;6.72;;;6.03;;
46613;SDS011;32338;50.430;6.806;2023-06-10T00:19:17;8.75;;;5.65;;
46613;SDS011;32338;50.430;6.806;2023-06-10T00:21:44;10.55;;;5.78;;
46613;SDS011;32338;50.430;6.806;2023-06-10T00:24:11;6.18;;;5.68;;
46613;SDS011;32338;50.430;6.806;2023-06-10T00:26:37;10.23;;;5.75;;
46613;SDS011;32338;50.430;6.806;2023-06-10T00:29:05;6.15;;;5.43;;
46613;SDS011;32338;50.430;6.806;2023-06-10T00:31:33;6.25;;;5.65;;
46613;SDS011;32338;50.430;6.806;2023-06-10T00:34:00;6.63;;;5.80;;
46613;SDS011;32338;50.430;6.806;2023-06-10T00:36:27;6.07;;;5.43;;
46613;SDS011;32338;50.430;6.806;2023-06-10T00:38:53;10.05;;;5.95;;
46613;SDS011;32338;50.430;6.806;2023-06-10T00:41:20;7.10;;;6.05;;
46613;SDS011;32338;50.430;6.806;2023-06-10T00:43:46;8.82;;;5.78;;
46613;SDS011;32338;50.430;6.806;2023-06-10T00:46:14;6.65;;;5.28;;
46613;SDS011;32338;50.430;6.806;2023-06-10T00:48:42;7.50;;;5.60;;
46613;SDS011;32338;50.430;6.806;2023-06-10T00:51:09;6.70;;;6.20;;
46613;SDS011;32338;50.430;6.806;2023-06-10T00:53:37;9.65;;;6.00;;
46613;SDS011;32338;50.430;6.806;2023-06-10T00:56:06;6.65;;;5.95;;
46613;SDS011;32338;50.430;6.806;2023-06-10T00:58:33;6.95;;;6.05;;
46613;SDS011;32338;50.430;6.806;2023-06-10T01:01:01;6.38;;;5.57;;
46613;SDS011;32338;50.430;6.806;2023-06-10T01:03:30;7.32;;;5.70;;
46613;SDS011;32338;50.430;6.806;2023-06-10T01:06:03;7.53;;;5.45;;
46613;SDS011;32338;50.430;6.806;2023-06-10T01:08:37;6.18;;;5.57;;
46613;SDS011;32338;50.430;6.806;2023-06-10T01:11:13;8.43;;;5.63;;
46613;SDS011;32338;50.430;6.806;2023-06-10T01:13:45;8.80;;;5.97;;
46613;SDS011;32338;50.430;6.806;2023-06-10T01:16:17;6.13;;;5.53;;
46613;SDS011;32338;50.430;6.806;2023-06-10T01:18:45;9.80;;;5.20;;
46613;SDS011;32338;50.430;6.806;2023-06-10T01:21:15;6.32;;;5.72;;
46613;SDS011;32338;50.430;6.806;2023-06-10T01:23:45;6.63;;;5.10;;
46613;SDS011;32338;50.430;6.806;2023-06-10T01:26:12;6.75;;;5.43;;
46613;SDS011;32338;50.430;6.806;2023-06-10T01:28:40;5.78;;;5.32;;
46613;SDS011;32338;50.430;6.806;2023-06-10T01:31:15;7.25;;;5.63;;
46613;SDS011;32338;50.430;6.806;2023-06-10T01:33:47;6.20;;;5.60;;
46613;SDS011;32338;50.430;6.806;2023-06-10T01:36:17;7.72;;;5.65;;
46613;SDS011;32338;50.430;6.806;2023-06-10T01:38:45;6.78;;;5.88;;
46613;SDS011;32338;50.430;6.806;2023-06-10T01:41:14;8.00;;;6.30;;
46613;SDS011;32338;50.430;6.806;2023-06-10T01:43:43;5.88;;;5.32;;
46613;SDS011;32338;50.430;6.806;2023-06-10T01:46:11;11.07;;;6.30;;
46613;SDS011;32338;50.430;6.806;2023-06-10T01:48:38;6.25;;;5.65;;
46613;SDS011;32338;50.430;6.806;2023-06-10T01:51:05;6.40;;;5.90;;
46613;SDS011;32338;50.430;6.806;2023-06-10T01:53:33;8.38;;;5.22;;
46613;SDS011;32338;50.430;6.806;2023-06-10T01:56:00;8.90;;;6.32;;
46613;SDS011;32338;50.430;6.806;2023-06-10T01:58:26;6.18;;;5.65;;
46613;SDS011;32338;50.430;6.806;2023-06-10T02:00:53;8.70;;;5.97;;
46613;SDS011;32338;50.430;6.806;2023-06-10T02:03:19;6.90;;;5.68;;
46613;SDS011;32338;50.430;6.806;2023-06-10T02:05:46;7.30;;;5.35;;
46613;SDS011;32338;50.430;6.806;2023-06-10T02:08:13;6.53;;;5.88;;
46613;SDS011;32338;50.430;6.806;2023-06-10T02:10:41;10.65;;;5.38;;
46613;SDS011;32338;50.430;6.806;2023-06-10T02:13:08;5.93;;;5.40;;
46613;SDS011;32338;50.430;6.806;2023-06-10T02:15:34;7.28;;;5.13;;
46613;SDS011;32338;50.430;6.806;2023-06-10T02:18:01;5.88;;;5.38;;
46613;SDS011;32338;50.430;6.806;2023-06-10T02:20:28;6.78;;;5.88;;
46613;SDS011;32338;50.430;6.806;2023-06-10T02:22:54;5.50;;;5.10;;
46613;SDS011;32338;50.430;6.806;2023-06-10T02:25:21;6.53;;;5.93;;
46613;SDS011;32338;50.430;6.806;2023-06-10T02:27:49;7.15;;;5.10;;
46613;SDS011;32338;50.430;6.806;2023-06-10T02:30:15;5.88;;;5.38;;
46613;SDS011;32338;50.430;6.806;2023-06-10T02:32:42;6.35;;;5.75;;
46613;SDS011;32338;50.430;6.806;2023-06-10T02:35:12;8.18;;;5.53;;
46613;SDS011;32338;50.430;6.806;2023-06-10T02:37:39;6.13;;;5.53;;
46613;SDS011;32338;50.430;6.806;2023-06-10T02:40:06;7.63;;;5.47;;
46613;SDS011;32338;50.430;6.806;2023-06-10T02:42:33;5.80;;;5.30;;
46613;SDS011;32338;50.430;6.806;2023-06-10T02:45:01;6.22;;;5.10;;
46613;SDS011;32338;50.430;6.806;2023-06-10T02:47:28;5.63;;;5.13;;
46613;SDS011;32338;50.430;6.806;2023-06-10T02:49:54;5.93;;;5.43;;
46613;SDS011;32338;50.430;6.806;2023-06-10T02:52:21;5.82;;;5.32;;
46613;SDS011;32338;50.430;6.806;2023-06-10T02:54:47;7.97;;;5.95;;
46613;SDS011;32338;50.430;6.806;2023-06-10T02:57:14;5.95;;;5.18;;
46613;SDS011;32338;50.430;6.806;2023-06-10T02:59:41;7.13;;;5.50;;
46613;SDS011;32338;50.430;6.806;2023-06-10T03:02:09;4.90;;;4.53;;
46613;SDS011;32338;50.430;6.806;2023-06-10T03:04:37;6.15;;;5.55;;
46613;SDS011;32338;50.430;6.806;2023-06-10T03:07:04;6.10;;;5.50;;
46613;SDS011;32338;50.430;6.806;2023-06-10T03:09:32;6.20;;;5.57;;
46613;SDS011;32338;50.430;6.806;2023-06-10T03:11:59;5.25;;;4.82;;
46613;SDS011;32338;50.430;6.806;2023-06-10T03:14:26;6.07;;;5.47;;
46613;SDS011;32338;50.430;6.806;2023-06-10T03:16:53;6.97;;;5.63;;
46613;SDS011;32338;50.430;6.806;2023-06-10T03:19:22;6.43;;;5.00;;
46613;SDS011;32338;50.430;6.806;2023-06-10T03:21:49;5.80;;;5.18;;
46613;SDS011;32338;50.430;6.806;2023-06-10T03:24:20;12.80;;;5.20;;
46613;SDS011;32338;50.430;6.806;2023-06-10T03:26:47;6.10;;;5.18;;
46613;SDS011;32338;50.430;6.806;2023-06-10T03:29:14;7.63;;;5.28;;
46613;SDS011;32338;50.430;6.806;2023-06-10T03:31:40;6.88;;;6.20;;
46613;SDS011;32338;50.430;6.806;2023-06-10T03:34:07;6.47;;;5.25;;
46613;SDS011;32338;50.430;6.806;2023-06-10T03:36:35;6.20;;;5.32;;
46613;SDS011;32338;50.430;6.806;2023-06-10T03:39:02;8.27;;;6.35;;
46613;SDS011;32338;50.430;6.806;2023-06-10T03:41:30;5.70;;;5.30;;
46613;SDS011;32338;50.430;6.806;2023-06-10T03:43:57;6.60;;;5.72;;
46613;SDS011;32338;50.430;6.806;2023-06-10T03:46:23;8.63;;;5.13;;
46613;SDS011;32338;50.430;6.806;2023-06-10T03:48:50;7.03;;;5.32;;
46613;SDS011;32338;50.430;6.806;2023-06-10T03:51:17;6.22;;;5.60;;
46613;SDS011;32338;50.430;6.806;2023-06-10T03:53:45;6.38;;;5.88;;
46613;SDS011;32338;50.430;6.806;2023-06-10T03:56:11;6.03;;;5.53;;
46613;SDS011;32338;50.430;6.806;2023-06-10T03:58:38;6.65;;;5.18;;
46613;SDS011;32338;50.430;6.806;2023-06-10T04:01:05;5.97;;;5.50;;
46613;SDS011;32338;50.430;6.806;2023-06-10T04:03:32;6.10;;;5.55;;
46613;SDS011;32338;50.430;6.806;2023-06-10T04:05:58;8.43;;;5.65;;
46613;SDS011;32338;50.430;6.806;2023-06-10T04:08:25;7.70;;;6.25;;
46613;SDS011;32338;50.430;6.806;2023-06-10T04:10:53;5.63;;;5.20;;
46613;SDS011;32338;50.430;6.806;2023-06-10T04:13:20;10.45;;;6.10;;
46613;SDS011;32338;50.430;6.806;2023-06-10T04:15:46;5.75;;;5.28;;
46613;SDS011;32338;50.430;6.806;2023-06-10T04:18:13;5.65;;;5.15;;
46613;SDS011;32338;50.430;6.806;2023-06-10T04:20:40;6.05;;;5.50;;
46613;SDS011;32338;50.430;6.806;2023-06-10T04:23:06;6.63;;;5.97;;
46613;SDS011;32338;50.430;6.806;2023-06-10T04:25:33;6.45;;;5.93;;
46613;SDS011;32338;50.430;6.806;2023-06-10T04:28:01;5.40;;;5.00;;
46613;SDS011;32338;50.430;6.806;2023-06-10T04:30:28;5.60;;;5.20;;
46613;SDS011;32338;50.430;6.806;2023-06-10T04:32:56;5.82;;;5.32;;
46613;SDS011;32338;50.430;6.806;2023-06-10T04:35:22;7.93;;;5.82;;
46613;SDS011;32338;50.430;6.806;2023-06-10T04:37:51;5.57;;;5.18;;
46613;SDS011;32338;50.430;6.806;2023-06-10T04:40:18;6.00;;;5.50;;
46613;SDS011;32338;50.430;6.806;2023-06-10T04:42:45;6.43;;;5.82;;
46613;SDS011;32338;50.430;6.806;2023-06-10T04:45:13;7.10;;;5.68;;
46613;SDS011;32338;50.430;6.806;2023-06-10T04:47:39;6.22;;;5.72;;
46613;SDS011;32338;50.430;6.806;2023-06-10T04:50:06;5.65;;;5.15;;
46613;SDS011;32338;50.430;6.806;2023-06-10T04:52:33;5.93;;;5.43;;
46613;SDS011;32338;50.430;6.806;2023-06-10T04:55:00;6.32;;;5.65;;
46613;SDS011;32338;50.430;6.806;2023-06-10T04:57:27;6.07;;;5.57;;
46613;SDS011;32338;50.430;6.806;2023-06-10T04:59:53;7.25;;;5.35;;
46613;SDS011;32338;50.430;6.806;2023-06-10T05:02:21;7.55;;;5.75;;
46613;SDS011;32338;50.430;6.806;2023-06-10T05:04:48;6.10;;;5.60;;
46613;SDS011;32338;50.430;6.806;2023-06-10T05:07:15;5.82;;;5.43;;
46613;SDS011;32338;50.430;6.806;2023-06-10T05:09:42;8.88;;;5.78;;
46613;SDS011;32338;50.430;6.806;2023-06-10T05:12:08;6.65;;;6.05;;
46613;SDS011;32338;50.430;6.806;2023-06-10T05:14:35;6.60;;;5.70;;
46613;SDS011;32338;50.430;6.806;2023-06-10T05:17:02;8.05;;;5.75;;
46613;SDS011;32338;50.430;6.806;2023-06-10T05:19:32;6.88;;;5.85;;
46613;SDS011;32338;50.430;6.806;2023-06-10T05:21:58;7.72;;;6.38;;
46613;SDS011;32338;50.430;6.806;2023-06-10T05:24:25;6.00;;;5.43;;
46613;SDS011;32338;50.430;6.806;2023-06-10T05:26:52;6.28;;;5.75;;
46613;SDS011;32338;50.430;6.806;2023-06-10T05:29:19;6.53;;;5.93;;
46613;SDS011;32338;50.430;6.806;2023-06-10T05:31:46;8.60;;;6.50;;
46613;SDS011;32338;50.430;6.806;2023-06-10T05:34:12;6.85;;;6.25;;
46613;SDS011;32338;50.430;6.806;2023-06-10T05:36:40;6.35;;;5.70;;
46613;SDS011;32338;50.430;6.806;2023-06-10T05:39:07;7.78;;;6.35;;
46613;SDS011;32338;50.430;6.806;2023-06-10T05:41:33;6.20;;;5.65;;
46613;SDS011;32338;50.430;6.806;2023-06-10T05:44:00;6.38;;;5.88;;
46613;SDS011;32338;50.430;6.806;2023-06-10T05:46:26;6.85;;;6.28;;
46613;SDS011;32338;50.430;6.806;2023-06-10T05:48:53;6.45;;;5.85;;
46613;SDS011;32338;50.430;6.806;2023-06-10T05:51:19;6.97;;;6.28;;
46613;SDS011;32338;50.430;6.806;2023-06-10T05:53:47;6.53;;;5.95;;
46613;SDS011;32338;50.430;6.806;2023-06-10T05:56:14;7.13;;;6.43;;
46613;SDS011;32338;50.430;6.806;2023-06-10T05:58:41;6.60;;;6.10;;
46613;SDS011;32338;50.430;6.806;2023-06-10T06:01:07;8.50;;;6.10;;
46613;SDS011;32338;50.430;6.806;2023-06-10T06:03:34;8.65;;;6.20;;
46613;SDS011;32338;50.430;6.806;2023-06-10T06:06:00;7.18;;;6.50;;
46613;SDS011;32338;50.430;6.806;2023-06-10T06:08:27;6.25;;;5.82;;
46613;SDS011;32338;50.430;6.806;2023-06-10T06:10:55;7.05;;;6.40;;
46613;SDS011;32338;50.430;6.806;2023-06-10T06:13:22;6.40;;;5.93;;
46613;SDS011;32338;50.430;6.806;2023-06-10T06:15:48;7.47;;;6.47;;
46613;SDS011;32338;50.430;6.806;2023-06-10T06:18:15;7.20;;;6.47;;
46613;SDS011;32338;50.430;6.806;2023-06-10T06:20:43;7.15;;;6.45;;
46613;SDS011;32338;50.430;6.806;2023-06-10T06:23:10;6.72;;;6.13;;
46613;SDS011;32338;50.430;6.806;2023-06-10T06:25:36;12.43;;;6.25;;
46613;SDS011;32338;50.430;6.806;2023-06-10T06:28:05;7.00;;;6.32;;
46613;SDS011;32338;50.430;6.806;2023-06-10T06:30:32;6.18;;;5.68;;
46613;SDS011;32338;50.430;6.806;2023-06-10T06:32:58;6.30;;;5.80;;
46613;SDS011;32338;50.430;6.806;2023-06-10T06:35:25;8.57;;;6.35;;
46613;SDS011;32338;50.430;6.806;2023-06-10T06:37:51;7.00;;;6.40;;
46613;SDS011;32338;50.430;6.806;2023-06-10T06:42:12;6.32;;;5.72;;
46613;SDS011;32338;50.430;6.806;2023-06-10T06:44:38;6.60;;;5.25;;
46613;SDS011;32338;50.430;6.806;2023-06-10T06:47:05;6.07;;;5.32;;
46613;SDS011;32338;50.430;6.806;2023-06-10T06:49:32;5.95;;;5.45;;
46613;SDS011;32338;50.430;6.806;2023-06-10T06:51:58;5.70;;;4.55;;
46613;SDS011;32338;50.430;6.806;2023-06-10T06:54:25;5.10;;;4.70;;
46613;SDS011;32338;50.430;6.806;2023-06-10T06:56:51;6.28;;;5.68;;
46613;SDS011;32338;50.430;6.806;2023-06-10T06:59:19;7.00;;;5.35;;
46613;SDS011;32338;50.430;6.806;2023-06-10T07:01:46;11.23;;;5.65;;
46613;SDS011;32338;50.430;6.806;2023-06-10T07:04:14;6.10;;;5.60;;
46613;SDS011;32338;50.430;6.806;2023-06-10T07:06:41;6.00;;;5.45;;
46613;SDS011;32338;50.430;6.806;2023-06-10T07:09:08;8.98;;;5.53;;
46613;SDS011;32338;50.430;6.806;2023-06-10T07:11:34;5.55;;;5.15;;
46613;SDS011;32338;50.430;6.806;2023-06-10T07:14:01;7.65;;;5.40;;
46613;SDS011;32338;50.430;6.806;2023-06-10T07:16:29;5.07;;;4.68;;
46613;SDS011;32338;50.430;6.806;2023-06-10T07:18:55;7.72;;;4.95;;
46613;SDS011;32338;50.430;6.806;2023-06-10T07:21:22;8.10;;;5.55;;
46613;SDS011;32338;50.430;6.806;2023-06-10T07:23:49;7.05;;;5.15;;
46613;SDS011;32338;50.430;6.806;2023-06-10T07:26:18;5.70;;;5.20;;
46613;SDS011;32338;50.430;6.806;2023-06-10T07:28:45;5.72;;;5.22;;
46613;SDS011;32338;50.430;6.806;2023-06-10T07:31:11;6.18;;;4.75;;
46613;SDS011;32338;50.430;6.806;2023-06-10T07:33:39;5.15;;;4.65;;
46613;SDS011;32338;50.430;6.806;2023-06-10T07:36:06;6.20;;;5.65;;
46613;SDS011;32338;50.430;6.806;2023-06-10T07:38:33;5.50;;;5.00;;
46613;SDS011;32338;50.430;6.806;2023-06-10T07:41:00;5.70;;;5.25;;
46613;SDS011;32338;50.430;6.806;2023-06-10T07:43:26;5.90;;;5.32;;
46613;SDS011;32338;50.430;6.806;2023-06-10T07:45:53;5.93;;;5.43;;
46613;SDS011;32338;50.430;6.806;2023-06-10T07:48:19;8.45;;;4.97;;
46613;SDS011;32338;50.430;6.806;2023-06-10T07:50:47;5.88;;;5.43;;
46613;SDS011;32338;50.430;6.806;2023-06-10T07:53:14;5.68;;;5.28;;
46613;SDS011;32338;50.430;6.806;2023-06-10T07:55:40;6.38;;;5.50;;
46613;SDS011;32338;50.430;6.806;2023-06-10T07:58:07;5.85;;;5.43;;
46613;SDS011;32338;50.430;6.806;2023-06-10T08:00:33;6.00;;;5.00;;
46613;SDS011;32338;50.430;6.806;2023-06-10T08:03:00;8.45;;;5.28;;
46613;SDS011;32338;50.430;6.806;2023-06-10T08:05:27;6.07;;;5.60;;
46613;SDS011;32338;50.430;6.806;2023-06-10T08:07:55;5.07;;;4.68;;
46613;SDS011;32338;50.430;6.806;2023-06-10T08:10:22;4.95;;;4.65;;
46613;SDS011;32338;50.430;6.806;2023-06-10T08:12:48;5.82;;;5.28;;
46613;SDS011;32338;50.430;6.806;2023-06-10T08:15:15;5.65;;;5.22;;
46613;SDS011;32338;50.430;6.806;2023-06-10T08:17:41;5.63;;;5.13;;
46613;SDS011;32338;50.430;6.806;2023-06-10T08:20:08;5.60;;;5.10;;
46613;SDS011;32338;50.430;6.806;2023-06-10T08:22:35;5.43;;;5.03;;
46613;SDS011;32338;50.430;6.806;2023-06-10T08:25:03;5.20;;;4.80;;
46613;SDS011;32338;50.430;6.806;2023-06-10T08:27:30;5.10;;;4.70;;
46613;SDS011;32338;50.430;6.806;2023-06-10T08:29:57;5.85;;;5.20;;
46613;SDS011;32338;50.430;6.806;2023-06-10T08:32:25;5.35;;;4.80;;
46613;SDS011;32338;50.430;6.806;2023-06-10T08:34:52;4.93;;;4.53;;
46613;SDS011;32338;50.430;6.806;2023-06-10T08:37:18;5.80;;;4.80;;
46613;SDS011;32338;50.430;6.806;2023-06-10T08:39:45;6.55;;;5.13;;
46613;SDS011;32338;50.430;6.806;2023-06-10T08:42:15;5.07;;;4.57;;
46613;SDS011;32338;50.430;6.806;2023-06-10T08:47:15;14.93;;;5.18;;
46613;SDS011;32338;50.430;6.806;2023-06-10T08:49:43;5.80;;;5.10;;
46613;SDS011;32338;50.430;6.806;2023-06-10T08:52:13;5.10;;;4.57;;
46613;SDS011;32338;50.430;6.806;2023-06-10T08:54:42;6.47;;;4.90;;
46613;SDS011;32338;50.430;6.806;2023-06-10T08:57:10;5.55;;;4.80;;
46613;SDS011;32338;50.430;6.806;2023-06-10T08:59:38;6.82;;;4.70;;
46613;SDS011;32338;50.430;6.806;2023-06-10T09:02:06;5.22;;;4.82;;
46613;SDS011;32338;50.430;6.806;2023-06-10T09:04:34;5.18;;;4.57;;
46613;SDS011;32338;50.430;6.806;2023-06-10T09:07:02;5.25;;;4.68;;
46613;SDS011;32338;50.430;6.806;2023-06-10T09:09:30;5.65;;;5.15;;
46613;SDS011;32338;50.430;6.806;2023-06-10T09:11:58;5.15;;;4.75;;
46613;SDS011;32338;50.430;6.806;2023-06-10T09:14:25;5.47;;;4.85;;
46613;SDS011;32338;50.430;6.806;2023-06-10T09:16:53;4.95;;;4.55;;
46613;SDS011;32338;50.430;6.806;2023-06-10T09:19:22;4.47;;;4.00;;
46613;SDS011;32338;50.430;6.806;2023-06-10T09:21:49;5.93;;;4.60;;
46613;SDS011;32338;50.430;6.806;2023-06-10T09:24:16;7.03;;;5.07;;
46613;SDS011;32338;50.430;6.806;2023-06-10T09:26:43;6.40;;;5.00;;
46613;SDS011;32338;50.430;6.806;2023-06-10T09:29:11;6.18;;;5.15;;
46613;SDS011;32338;50.430;6.806;2023-06-10T09:31:38;6.70;;;4.80;;
46613;SDS011;32338;50.430;6.806;2023-06-10T09:34:08;6.47;;;4.32;;
46613;SDS011;32338;50.430;6.806;2023-06-10T09:36:35;5.35;;;4.45;;
46613;SDS011;32338;50.430;6.806;2023-06-10T09:39:02;5.05;;;4.57;;
46613;SDS011;32338;50.430;6.806;2023-06-10T09:41:32;5.18;;;4.10;;
46613;SDS011;32338;50.430;6.806;2023-06-10T09:44:00;6.15;;;4.07;;
46613;SDS011;32338;50.430;6.806;2023-06-10T09:46:30;5.05;;;3.90;;
46613;SDS011;32338;50.430;6.806;2023-06-10T09:48:57;6.38;;;4.28;;
46613;SDS011;32338;50.430;6.806;2023-06-10T09:51:25;5.97;;;4.20;;
46613;SDS011;32338;50.430;6.806;2023-06-10T09:53:53;4.10;;;3.75;;
46613;SDS011;32338;50.430;6.806;2023-06-10T09:56:20;7.82;;;4.82;;
46613;SDS011;32338;50.430;6.806;2023-06-10T09:58:49;4.93;;;4.45;;
46613;SDS011;32338;50.430;6.806;2023-06-10T10:01:19;4.55;;;4.10;;
46613;SDS011;32338;50.430;6.806;2023-06-10T10:03:46;7.35;;;4.50;;
46613;SDS011;32338;50.430;6.806;2023-06-10T10:06:14;4.57;;;4.13;;
46613;SDS011;32338;50.430;6.806;2023-06-10T10:08:43;4.70;;;4.30;;
46613;SDS011;32338;50.430;6.806;2023-06-10T10:11:10;7.15;;;4.32;;
46613;SDS011;32338;50.430;6.806;2023-06-10T10:13:37;7.82;;;4.40;;
46613;SDS011;32338;50.430;6.806;2023-06-10T10:16:06;10.45;;;4.60;;
46613;SDS011;32338;50.430;6.806;2023-06-10T10:18:38;4.05;;;3.38;;
46613;SDS011;32338;50.430;6.806;2023-06-10T10:21:10;5.15;;;4.05;;
46613;SDS011;32338;50.430;6.806;2023-06-10T10:23:40;7.38;;;3.78;;
46613;SDS011;32338;50.430;6.806;2023-06-10T10:26:15;5.47;;;3.70;;
46613;SDS011;32338;50.430;6.806;2023-06-10T10:28:44;6.25;;;3.55;;
46613;SDS011;32338;50.430;6.806;2023-06-10T10:31:15;5.15;;;3.40;;
46613;SDS011;32338;50.430;6.806;2023-06-10T10:33:48;3.28;;;2.97;;
46613;SDS011;32338;50.430;6.806;2023-06-10T10:36:21;6.85;;;3.45;;
46613;SDS011;32338;50.430;6.806;2023-06-10T10:38:49;4.80;;;3.45;;
46613;SDS011;32338;50.430;6.806;2023-06-10T10:41:16;3.42;;;3.10;;
46613;SDS011;32338;50.430;6.806;2023-06-10T10:43:44;5.45;;;2.90;;
46613;SDS011;32338;50.430;6.806;2023-06-10T10:46:13;4.63;;;4.20;;
46613;SDS011;32338;50.430;6.806;2023-06-10T10:48:41;4.05;;;3.25;;
46613;SDS011;32338;50.430;6.806;2023-06-10T10:51:08;5.15;;;3.60;;
46613;SDS011;32338;50.430;6.806;2023-06-10T10:53:36;4.20;;;3.80;;
46613;SDS011;32338;50.430;6.806;2023-06-10T10:56:08;3.83;;;3.53;;
46613;SDS011;32338;50.430;6.806;2023-06-10T10:58:39;9.10;;;3.60;;
46613;SDS011;32338;50.430;6.806;2023-06-10T11:01:14;4.32;;;3.55;;
46613;SDS011;32338;50.430;6.806;2023-06-10T11:03:44;3.88;;;3.50;;
46613;SDS011;32338;50.430;6.806;2023-06-10T11:06:12;7.80;;;3.67;;
46613;SDS011;32338;50.430;6.806;2023-06-10T11:08:46;7.85;;;3.80;;
46613;SDS011;32338;50.430;6.806;2023-06-10T11:11:18;12.70;;;3.72;;
46613;SDS011;32338;50.430;6.806;2023-06-10T11:14:05;3.75;;;3.45;;
46613;SDS011;32338;50.430;6.806;2023-06-10T11:16:38;5.07;;;3.60;;
46613;SDS011;32338;50.430;6.806;2023-06-10T11:19:06;7.20;;;3.80;;
46613;SDS011;32338;50.430;6.806;2023-06-10T11:21:36;9.50;;;4.05;;
46613;SDS011;32338;50.430;6.806;2023-06-10T11:24:23;4.43;;;3.63;;
46613;SDS011;32338;50.430;6.806;2023-06-10T11:26:52;15.68;;;3.90;;
46613;SDS011;32338;50.430;6.806;2023-06-10T11:29:19;7.05;;;4.00;;
46613;SDS011;32338;50.430;6.806;2023-06-10T11:31:48;4.85;;;3.78;;
46613;SDS011;32338;50.430;6.806;2023-06-10T11:34:23;6.38;;;4.00;;
46613;SDS011;32338;50.430;6.806;2023-06-10T11:36:52;4.78;;;3.70;;
46613;SDS011;32338;50.430;6.806;2023-06-10T11:39:19;7.28;;;3.80;;
46613;SDS011;32338;50.430;6.806;2023-06-10T11:41:49;6.97;;;3.95;;
46613;SDS011;32338;50.430;6.806;2023-06-10T11:44:19;7.35;;;3.65;;
46613;SDS011;32338;50.430;6.806;2023-06-10T11:46:47;6.72;;;3.88;;
46613;SDS011;32338;50.430;6.806;2023-06-10T11:49:15;6.32;;;4.10;;
46613;SDS011;32338;50.430;6.806;2023-06-10T11:51:41;3.90;;;3.60;;
46613;SDS011;32338;50.430;6.806;2023-06-10T11:54:14;9.10;;;3.80;;
46613;SDS011;32338;50.430;6.806;2023-06-10T11:56:41;5.22;;;3.80;;
46613;SDS011;32338;50.430;6.806;2023-06-10T11:59:08;4.72;;;4.15;;
46613;SDS011;32338;50.430;6.806;2023-06-10T12:01:36;5.30;;;3.80;;
46613;SDS011;32338;50.430;6.806;2023-06-10T12:04:05;4.60;;;3.80;;
46613;SDS011;32338;50.430;6.806;2023-06-10T12:06:40;6.63;;;3.22;;
46613;SDS011;32338;50.430;6.806;2023-06-10T12:09:12;3.88;;;3.42;;
46613;SDS011;32338;50.430;6.806;2023-06-10T12:11:40;3.83;;;3.30;;
46613;SDS011;32338;50.430;6.806;2023-06-10T12:14:08;4.60;;;3.53;;
46613;SDS011;32338;50.430;6.806;2023-06-10T12:16:36;4.78;;;3.28;;
46613;SDS011;32338;50.430;6.806;2023-06-10T12:19:03;3.88;;;2.90;;
46613;SDS011;32338;50.430;6.806;2023-06-10T12:21:31;3.17;;;2.75;;
46613;SDS011;32338;50.430;6.806;2023-06-10T12:24:09;4.55;;;3.33;;
46613;SDS011;32338;50.430;6.806;2023-06-10T12:26:40;6.65;;;3.55;;
46613;SDS011;32338;50.430;6.806;2023-06-10T12:29:20;4.70;;;3.28;;
46613;SDS011;32338;50.430;6.806;2023-06-10T12:31:54;3.38;;;2.58;;
46613;SDS011;32338;50.430;6.806;2023-06-10T12:34:32;5.00;;;3.08;;
46613;SDS011;32338;50.430;6.806;2023-06-10T12:37:00;4.72;;;3.13;;
46613;SDS011;32338;50.430;6.806;2023-06-10T12:39:29;4.97;;;3.20;;
46613;SDS011;32338;50.430;6.806;2023-06-10T12:41:56;2.92;;;2.65;;
46613;SDS011;32338;50.430;6.806;2023-06-10T12:44:30;6.10;;;2.80;;
46613;SDS011;32338;50.430;6.806;2023-06-10T12:47:06;5.30;;;3.08;;
46613;SDS011;32338;50.430;6.806;2023-06-10T12:49:34;5.55;;;3.05;;
46613;SDS011;32338;50.430;6.806;2023-06-10T12:52:01;4.68;;;3.20;;
46613;SDS011;32338;50.430;6.806;2023-06-10T12:54:28;3.78;;;3.47;;
46613;SDS011;32338;50.430;6.806;2023-06-10T12:56:54;10.38;;;3.00;;
46613;SDS011;32338;50.430;6.806;2023-06-10T12:59:21;5.85;;;3.03;;
46613;SDS011;32338;50.430;6.806;2023-06-10T13:01:52;3.47;;;3.05;;
46613;SDS011;32338;50.430;6.806;2023-06-10T13:04:20;2.97;;;2.70;;
46613;SDS011;32338;50.430;6.806;2023-06-10T13:06:48;3.20;;;2.90;;
46613;SDS011;32338;50.430;6.806;2023-06-10T13:09:15;3.33;;;2.92;;
46613;SDS011;32338;50.430;6.806;2023-06-10T13:11:42;3.40;;;3.10;;
46613;SDS011;32338;50.430;6.806;2023-06-10T13:14:09;4.45;;;3.20;;
46613;SDS011;32338;50.430;6.806;2023-06-10T13:16:36;3.83;;;2.55;;
46613;SDS011;32338;50.430;6.806;2023-06-10T13:19:04;7.25;;;2.70;;
46613;SDS011;32338;50.430;6.806;2023-06-10T13:21:33;3.65;;;2.58;;
46613;SDS011;32338;50.430;6.806;2023-06-10T13:24:00;3.97;;;2.72;;
46613;SDS011;32338;50.430;6.806;2023-06-10T13:26:26;7.32;;;2.75;;
46613;SDS011;32338;50.430;6.806;2023-06-10T13:28:53;4.00;;;3.13;;
46613;SDS011;32338;50.430;6.806;2023-06-10T13:31:20;5.10;;;3.13;;
46613;SDS011;32338;50.430;6.806;2023-06-10T13:33:47;9.07;;;2.72;;
46613;SDS011;32338;50.430;6.806;2023-06-10T13:36:13;2.85;;;2.65;;
46613;SDS011;32338;50.430;6.806;2023-06-10T13:38:41;4.20;;;2.58;;
46613;SDS011;32338;50.430;6.806;2023-06-10T13:41:08;3.97;;;2.75;;
46613;SDS011;32338;50.430;6.806;2023-06-10T13:43:35;4.00;;;2.75;;
46613;SDS011;32338;50.430;6.806;2023-06-10T13:46:01;3.80;;;2.88;;
46613;SDS011;32338;50.430;6.806;2023-06-10T13:48:28;3.15;;;2.67;;
46613;SDS011;32338;50.430;6.806;2023-06-10T13:50:55;7.38;;;3.13;;
46613;SDS011;32338;50.430;6.806;2023-06-10T13:53:21;7.78;;;2.72;;
46613;SDS011;32338;50.430;6.806;2023-06-10T13:55:53;5.55;;;2.75;;
46613;SDS011;32338;50.430;6.806;2023-06-10T13:58:19;4.50;;;2.92;;
46613;SDS011;32338;50.430;6.806;2023-06-10T14:00:46;3.53;;;2.85;;
46613;SDS011;32338;50.430;6.806;2023-06-10T14:03:13;4.75;;;2.90;;
46613;SDS011;32338;50.430;6.806;2023-06-10T14:05:40;3.13;;;2.72;;
46613;SDS011;32338;50.430;6.806;2023-06-10T14:08:06;4.80;;;2.85;;
46613;SDS011;32338;50.430;6.806;2023-06-10T14:10:33;5.75;;;2.80;;
46613;SDS011;32338;50.430;6.806;2023-06-10T14:13:01;4.90;;;2.65;;
46613;SDS011;32338;50.430;6.806;2023-06-10T14:15:27;4.45;;;2.60;;
46613;SDS011;32338;50.430;6.806;2023-06-10T14:17:54;3.70;;;2.70;;
46613;SDS011;32338;50.430;6.806;2023-06-10T14:20:21;5.22;;;3.08;;
46613;SDS011;32338;50.430;6.806;2023-06-10T14:22:48;7.15;;;3.20;;
46613;SDS011;32338;50.430;6.806;2023-06-10T14:25:15;2.65;;;2.45;;
46613;SDS011;32338;50.430;6.806;2023-06-10T14:27:42;6.15;;;2.63;;
46613;SDS011;32338;50.430;6.806;2023-06-10T14:30:10;3.72;;;3.13;;
46613;SDS011;32338;50.430;6.806;2023-06-10T14:32:37;3.35;;;2.38;;
46613;SDS011;32338;50.430;6.806;2023-06-10T14:35:04;2.92;;;2.50;;
46613;SDS011;32338;50.430;6.806;2023-06-10T14:37:31;2.90;;;2.50;;
46613;SDS011;32338;50.430;6.806;2023-06-10T14:39:58;4.55;;;2.50;;
46613;SDS011;32338;50.430;6.806;2023-06-10T14:42:24;4.07;;;2.88;;
46613;SDS011;32338;50.430;6.806;2023-06-10T14:44:51;3.15;;;2.70;;
46613;SDS011;32338;50.430;6.806;2023-06-10T14:47:19;3.88;;;2.75;;
46613;SDS011;32338;50.430;6.806;2023-06-10T14:49:45;2.95;;;2.60;;
46613;SDS011;32338;50.430;6.806;2023-06-10T14:52:12;3.42;;;2.60;;
46613;SDS011;32338;50.430;6.806;2023-06-10T14:54:39;3.10;;;2.80;;
46613;SDS011;32338;50.430;6.806;2023-06-10T14:57:05;3.72;;;3.20;;